sensor_id;sensor_type;location;lat;lon;timestamp;temperature;humidity
9640;DHT22;51745;50.872;4.732;2022-09-23T00:01:57;9.30;99.90
9640;DHT22;51745;50.872;4.732;2022-09-23T00:04:46;9.30;99.90
9640;DHT22;51745;50.872;4.732;2022-09-23T00:07:34;9.30;99.90
9640;DHT22;51745;50.872;4.732;2022-09-23T00:10:22;9.30;99.90
9640;DHT22;51745;50.872;4.732;2022-09-23T00:13:10;9.30;99.90
9640;DHT22;51745;50.872;4.732;2022-09-23T00:16:02;9.30;99.90
9640;DHT22;51745;50.872;4.732;2022-09-23T00:18:50;9.30;99.90
9640;DHT22;51745;50.872;4.732;2022-09-23T00:21:38;9.20;99.90
9640;DHT22;51745;50.872;4.732;2022-09-23T00:24:26;9.10;99.90
9640;DHT22;51745;50.872;4.732;2022-09-23T00:27:17;9.00;99.90
9640;DHT22;51745;50.872;4.732;2022-09-23T00:30:07;9.00;99.90
9640;DHT22;51745;50.872;4.732;2022-09-23T00:33:00;9.00;99.90
9640;DHT22;51745;50.872;4.732;2022-09-23T00:35:48;8.90;99.90
9640;DHT22;51745;50.872;4.732;2022-09-23T00:38:37;8.90;99.90
9640;DHT22;51745;50.872;4.732;2022-09-23T00:41:25;8.80;99.90
9640;DHT22;51745;50.872;4.732;2022-09-23T00:47:20;8.80;99.90
9640;DHT22;51745;50.872;4.732;2022-09-23T00:50:11;8.70;99.90
9640;DHT22;51745;50.872;4.732;2022-09-23T00:53:03;8.80;99.90
9640;DHT22;51745;50.872;4.732;2022-09-23T00:55:53;8.80;99.90
9640;DHT22;51745;50.872;4.732;2022-09-23T00:58:43;8.70;99.90
9640;DHT22;51745;50.872;4.732;2022-09-23T01:01:32;8.70;99.90
9640;DHT22;51745;50.872;4.732;2022-09-23T01:04:20;8.70;99.90
9640;DHT22;51745;50.872;4.732;2022-09-23T01:07:10;8.40;99.90
9640;DHT22;51745;50.872;4.732;2022-09-23T01:09:58;8.70;99.90
9640;DHT22;51745;50.872;4.732;2022-09-23T01:12:51;8.70;99.90
9640;DHT22;51745;50.872;4.732;2022-09-23T01:15:42;8.70;99.90
9640;DHT22;51745;50.872;4.732;2022-09-23T01:18:34;8.60;99.90
9640;DHT22;51745;50.872;4.732;2022-09-23T01:21:35;8.60;99.90
9640;DHT22;51745;50.872;4.732;2022-09-23T01:30:38;8.50;99.90
9640;DHT22;51745;50.872;4.732;2022-09-23T01:33:31;8.50;99.90
9640;DHT22;51745;50.872;4.732;2022-09-23T01:36:21;8.50;99.90
9640;DHT22;51745;50.872;4.732;2022-09-23T01:39:10;8.50;99.90
9640;DHT22;51745;50.872;4.732;2022-09-23T01:42:00;8.50;99.90
9640;DHT22;51745;50.872;4.732;2022-09-23T01:44:52;8.50;99.90
9640;DHT22;51745;50.872;4.732;2022-09-23T01:47:43;8.50;99.90
9640;DHT22;51745;50.872;4.732;2022-09-23T01:50:39;8.40;99.90
9640;DHT22;51745;50.872;4.732;2022-09-23T01:53:45;8.40;99.90
9640;DHT22;51745;50.872;4.732;2022-09-23T01:56:34;8.40;99.90
9640;DHT22;51745;50.872;4.732;2022-09-23T01:59:25;8.40;99.90
9640;DHT22;51745;50.872;4.732;2022-09-23T02:02:19;8.60;99.90
9640;DHT22;51745;50.872;4.732;2022-09-23T02:05:13;10.30;99.90
9640;DHT22;51745;50.872;4.732;2022-09-23T02:08:04;8.40;99.90
9640;DHT22;51745;50.872;4.732;2022-09-23T02:10:53;8.40;99.90
9640;DHT22;51745;50.872;4.732;2022-09-23T02:13:43;8.40;99.90
9640;DHT22;51745;50.872;4.732;2022-09-23T02:16:32;8.30;99.90
9640;DHT22;51745;50.872;4.732;2022-09-23T02:19:25;8.20;99.90
9640;DHT22;51745;50.872;4.732;2022-09-23T02:22:17;8.10;99.90
9640;DHT22;51745;50.872;4.732;2022-09-23T02:25:07;7.90;99.90
9640;DHT22;51745;50.872;4.732;2022-09-23T02:27:56;8.00;99.90
9640;DHT22;51745;50.872;4.732;2022-09-23T02:30:47;7.90;99.90
9640;DHT22;51745;50.872;4.732;2022-09-23T02:33:40;8.00;99.90
9640;DHT22;51745;50.872;4.732;2022-09-23T02:36:31;8.00;99.90
9640;DHT22;51745;50.872;4.732;2022-09-23T02:39:26;7.90;99.90
9640;DHT22;51745;50.872;4.732;2022-09-23T02:42:17;8.00;99.90
9640;DHT22;51745;50.872;4.732;2022-09-23T02:45:08;8.00;99.90
9640;DHT22;51745;50.872;4.732;2022-09-23T02:47:58;8.00;99.90
9640;DHT22;51745;50.872;4.732;2022-09-23T02:50:48;8.10;99.90
9640;DHT22;51745;50.872;4.732;2022-09-23T02:53:37;7.90;99.90
9640;DHT22;51745;50.872;4.732;2022-09-23T02:56:27;7.90;99.90
9640;DHT22;51745;50.872;4.732;2022-09-23T02:59:15;7.80;99.90
9640;DHT22;51745;50.872;4.732;2022-09-23T03:02:10;7.80;99.90
9640;DHT22;51745;50.872;4.732;2022-09-23T03:05:01;7.80;99.90
9640;DHT22;51745;50.872;4.732;2022-09-23T03:07:55;7.80;99.90
9640;DHT22;51745;50.872;4.732;2022-09-23T03:10:50;7.80;99.90
9640;DHT22;51745;50.872;4.732;2022-09-23T03:13:45;7.80;99.90
9640;DHT22;51745;50.872;4.732;2022-09-23T03:16:38;7.70;99.90
9640;DHT22;51745;50.872;4.732;2022-09-23T03:19:29;7.70;99.90
9640;DHT22;51745;50.872;4.732;2022-09-23T03:22:20;7.60;99.90
9640;DHT22;51745;50.872;4.732;2022-09-23T03:25:12;7.60;99.90
9640;DHT22;51745;50.872;4.732;2022-09-23T03:28:00;7.70;99.90
9640;DHT22;51745;50.872;4.732;2022-09-23T03:30:50;7.70;99.90
9640;DHT22;51745;50.872;4.732;2022-09-23T03:33:41;7.70;99.90
9640;DHT22;51745;50.872;4.732;2022-09-23T03:36:30;7.70;99.90
9640;DHT22;51745;50.872;4.732;2022-09-23T03:39:39;7.70;99.90
9640;DHT22;51745;50.872;4.732;2022-09-23T03:42:28;7.70;99.90
9640;DHT22;51745;50.872;4.732;2022-09-23T03:45:18;7.60;99.90
9640;DHT22;51745;50.872;4.732;2022-09-23T03:48:09;7.60;99.90
9640;DHT22;51745;50.872;4.732;2022-09-23T03:50:59;7.60;99.90
9640;DHT22;51745;50.872;4.732;2022-09-23T03:53:49;7.60;99.90
9640;DHT22;51745;50.872;4.732;2022-09-23T03:56:37;7.60;99.90
9640;DHT22;51745;50.872;4.732;2022-09-23T03:59:24;7.60;99.90
9640;DHT22;51745;50.872;4.732;2022-09-23T04:02:13;7.60;99.90
9640;DHT22;51745;50.872;4.732;2022-09-23T04:05:03;7.60;99.90
9640;DHT22;51745;50.872;4.732;2022-09-23T04:07:51;7.60;99.90
9640;DHT22;51745;50.872;4.732;2022-09-23T04:10:39;7.00;99.90
9640;DHT22;51745;50.872;4.732;2022-09-23T04:13:27;7.60;99.90
9640;DHT22;51745;50.872;4.732;2022-09-23T04:16:17;7.60;99.90
9640;DHT22;51745;50.872;4.732;2022-09-23T04:19:05;7.40;99.90
9640;DHT22;51745;50.872;4.732;2022-09-23T04:21:57;7.60;99.90
9640;DHT22;51745;50.872;4.732;2022-09-23T04:24:45;7.60;99.90
9640;DHT22;51745;50.872;4.732;2022-09-23T04:27:36;7.50;99.90
9640;DHT22;51745;50.872;4.732;2022-09-23T04:30:25;7.70;99.90
9640;DHT22;51745;50.872;4.732;2022-09-23T04:33:13;7.70;99.90
9640;DHT22;51745;50.872;4.732;2022-09-23T04:36:01;7.70;99.90
9640;DHT22;51745;50.872;4.732;2022-09-23T04:38:50;7.80;99.90
9640;DHT22;51745;50.872;4.732;2022-09-23T04:41:38;7.80;99.90
9640;DHT22;51745;50.872;4.732;2022-09-23T04:44:26;7.80;99.90
9640;DHT22;51745;50.872;4.732;2022-09-23T04:47:14;7.80;99.90
9640;DHT22;51745;50.872;4.732;2022-09-23T04:50:05;7.80;99.90
9640;DHT22;51745;50.872;4.732;2022-09-23T04:52:52;7.80;99.90
9640;DHT22;51745;50.872;4.732;2022-09-23T04:55:42;7.90;99.90
9640;DHT22;51745;50.872;4.732;2022-09-23T04:58:30;7.80;99.90
9640;DHT22;51745;50.872;4.732;2022-09-23T05:01:19;7.80;99.90
9640;DHT22;51745;50.872;4.732;2022-09-23T05:04:10;7.80;99.90
9640;DHT22;51745;50.872;4.732;2022-09-23T05:06:59;7.90;99.90
9640;DHT22;51745;50.872;4.732;2022-09-23T05:09:50;7.80;99.90
9640;DHT22;51745;50.872;4.732;2022-09-23T05:12:40;7.90;99.90
9640;DHT22;51745;50.872;4.732;2022-09-23T05:15:27;7.80;99.90
9640;DHT22;51745;50.872;4.732;2022-09-23T05:18:15;7.80;99.90
9640;DHT22;51745;50.872;4.732;2022-09-23T05:21:06;7.80;99.90
9640;DHT22;51745;50.872;4.732;2022-09-23T05:23:54;7.80;99.90
9640;DHT22;51745;50.872;4.732;2022-09-23T05:26:44;7.80;99.90
9640;DHT22;51745;50.872;4.732;2022-09-23T05:29:33;7.90;99.90
9640;DHT22;51745;50.872;4.732;2022-09-23T05:32:20;7.90;99.90
9640;DHT22;51745;50.872;4.732;2022-09-23T05:35:08;7.90;99.90
9640;DHT22;51745;50.872;4.732;2022-09-23T05:37:58;8.00;99.90
9640;DHT22;51745;50.872;4.732;2022-09-23T05:40:45;8.00;99.90
9640;DHT22;51745;50.872;4.732;2022-09-23T05:43:33;8.00;99.90
9640;DHT22;51745;50.872;4.732;2022-09-23T05:46:25;8.10;99.90
9640;DHT22;51745;50.872;4.732;2022-09-23T05:49:14;8.10;99.90
9640;DHT22;51745;50.872;4.732;2022-09-23T05:52:02;8.00;99.90
9640;DHT22;51745;50.872;4.732;2022-09-23T05:54:49;8.00;99.90
9640;DHT22;51745;50.872;4.732;2022-09-23T05:57:37;8.00;99.90
9640;DHT22;51745;50.872;4.732;2022-09-23T06:00:25;7.90;99.90
9640;DHT22;51745;50.872;4.732;2022-09-23T06:03:14;8.10;99.90
9640;DHT22;51745;50.872;4.732;2022-09-23T06:06:06;6.40;99.90
9640;DHT22;51745;50.872;4.732;2022-09-23T06:08:53;8.10;99.90
9640;DHT22;51745;50.872;4.732;2022-09-23T06:11:41;8.10;99.90
9640;DHT22;51745;50.872;4.732;2022-09-23T06:14:29;8.10;99.90
9640;DHT22;51745;50.872;4.732;2022-09-23T06:17:16;8.10;99.90
9640;DHT22;51745;50.872;4.732;2022-09-23T06:20:06;8.20;99.90
9640;DHT22;51745;50.872;4.732;2022-09-23T06:22:54;8.20;99.90
9640;DHT22;51745;50.872;4.732;2022-09-23T06:25:43;8.30;99.90
9640;DHT22;51745;50.872;4.732;2022-09-23T06:28:32;8.30;99.90
9640;DHT22;51745;50.872;4.732;2022-09-23T06:31:19;8.40;99.90
9640;DHT22;51745;50.872;4.732;2022-09-23T06:34:08;8.50;99.90
9640;DHT22;51745;50.872;4.732;2022-09-23T06:36:59;8.60;99.90
9640;DHT22;51745;50.872;4.732;2022-09-23T06:40:02;8.70;99.90
9640;DHT22;51745;50.872;4.732;2022-09-23T06:42:55;8.80;99.90
9640;DHT22;51745;50.872;4.732;2022-09-23T06:45:44;9.00;99.90
9640;DHT22;51745;50.872;4.732;2022-09-23T06:48:32;9.10;99.90
9640;DHT22;51745;50.872;4.732;2022-09-23T06:51:20;9.20;99.90
9640;DHT22;51745;50.872;4.732;2022-09-23T06:54:10;9.30;99.90
9640;DHT22;51745;50.872;4.732;2022-09-23T06:56:58;9.30;99.90
9640;DHT22;51745;50.872;4.732;2022-09-23T06:59:46;9.40;99.90
9640;DHT22;51745;50.872;4.732;2022-09-23T07:02:34;9.60;99.90
9640;DHT22;51745;50.872;4.732;2022-09-23T07:05:22;9.80;99.90
9640;DHT22;51745;50.872;4.732;2022-09-23T07:08:11;9.90;99.90
9640;DHT22;51745;50.872;4.732;2022-09-23T07:11:01;10.10;99.90
9640;DHT22;51745;50.872;4.732;2022-09-23T07:13:49;10.10;99.90
9640;DHT22;51745;50.872;4.732;2022-09-23T07:16:37;10.20;99.90
9640;DHT22;51745;50.872;4.732;2022-09-23T07:19:25;10.30;99.90
9640;DHT22;51745;50.872;4.732;2022-09-23T07:22:13;10.40;99.90
9640;DHT22;51745;50.872;4.732;2022-09-23T07:25:01;10.40;99.90
9640;DHT22;51745;50.872;4.732;2022-09-23T07:27:50;10.50;99.90
9640;DHT22;51745;50.872;4.732;2022-09-23T07:30:38;10.70;99.90
9640;DHT22;51745;50.872;4.732;2022-09-23T07:33:42;10.70;99.90
9640;DHT22;51745;50.872;4.732;2022-09-23T07:36:30;10.80;99.90
9640;DHT22;51745;50.872;4.732;2022-09-23T07:39:18;10.90;99.90
9640;DHT22;51745;50.872;4.732;2022-09-23T07:42:06;11.00;99.90
9640;DHT22;51745;50.872;4.732;2022-09-23T07:44:55;11.10;99.90
9640;DHT22;51745;50.872;4.732;2022-09-23T07:47:43;11.20;99.90
9640;DHT22;51745;50.872;4.732;2022-09-23T07:50:31;11.40;99.90
9640;DHT22;51745;50.872;4.732;2022-09-23T07:53:19;11.30;99.90
9640;DHT22;51745;50.872;4.732;2022-09-23T07:56:06;11.50;99.90
9640;DHT22;51745;50.872;4.732;2022-09-23T07:58:54;11.50;99.90
9640;DHT22;51745;50.872;4.732;2022-09-23T08:01:50;11.60;99.90
9640;DHT22;51745;50.872;4.732;2022-09-23T08:04:39;11.80;99.90
9640;DHT22;51745;50.872;4.732;2022-09-23T08:07:27;11.80;99.90
9640;DHT22;51745;50.872;4.732;2022-09-23T08:10:14;12.00;99.90
9640;DHT22;51745;50.872;4.732;2022-09-23T08:13:05;12.10;99.90
9640;DHT22;51745;50.872;4.732;2022-09-23T08:15:53;12.30;99.90
9640;DHT22;51745;50.872;4.732;2022-09-23T08:18:43;12.20;99.90
9640;DHT22;51745;50.872;4.732;2022-09-23T08:21:31;12.30;99.90
9640;DHT22;51745;50.872;4.732;2022-09-23T08:24:19;12.40;99.90
9640;DHT22;51745;50.872;4.732;2022-09-23T08:27:10;12.50;99.90
9640;DHT22;51745;50.872;4.732;2022-09-23T08:29:58;12.70;99.90
9640;DHT22;51745;50.872;4.732;2022-09-23T08:32:48;12.60;99.90
9640;DHT22;51745;50.872;4.732;2022-09-23T08:35:38;12.70;99.90
9640;DHT22;51745;50.872;4.732;2022-09-23T08:38:25;12.80;99.90
9640;DHT22;51745;50.872;4.732;2022-09-23T08:41:15;12.90;99.90
9640;DHT22;51745;50.872;4.732;2022-09-23T08:44:08;13.00;99.90
9640;DHT22;51745;50.872;4.732;2022-09-23T08:47:00;13.30;99.90
9640;DHT22;51745;50.872;4.732;2022-09-23T08:49:56;13.30;99.90
9640;DHT22;51745;50.872;4.732;2022-09-23T08:52:48;13.30;99.90
9640;DHT22;51745;50.872;4.732;2022-09-23T08:55:38;13.50;99.90
9640;DHT22;51745;50.872;4.732;2022-09-23T08:58:32;13.60;99.90
9640;DHT22;51745;50.872;4.732;2022-09-23T09:01:25;13.80;99.90
9640;DHT22;51745;50.872;4.732;2022-09-23T09:04:15;14.00;99.90
9640;DHT22;51745;50.872;4.732;2022-09-23T09:07:09;14.20;99.90
9640;DHT22;51745;50.872;4.732;2022-09-23T09:10:21;14.30;99.90
9640;DHT22;51745;50.872;4.732;2022-09-23T09:13:20;14.60;99.90
9640;DHT22;51745;50.872;4.732;2022-09-23T09:16:14;14.60;99.90
9640;DHT22;51745;50.872;4.732;2022-09-23T09:19:25;14.90;99.90
9640;DHT22;51745;50.872;4.732;2022-09-23T09:22:19;15.00;99.90
9640;DHT22;51745;50.872;4.732;2022-09-23T09:25:15;15.10;99.90
9640;DHT22;51745;50.872;4.732;2022-09-23T09:28:10;15.30;99.90
9640;DHT22;51745;50.872;4.732;2022-09-23T09:31:04;15.50;99.90
9640;DHT22;51745;50.872;4.732;2022-09-23T09:33:59;15.80;99.90
9640;DHT22;51745;50.872;4.732;2022-09-23T09:36:50;15.80;99.90
9640;DHT22;51745;50.872;4.732;2022-09-23T09:39:41;15.80;99.90
9640;DHT22;51745;50.872;4.732;2022-09-23T09:42:35;15.90;99.90
9640;DHT22;51745;50.872;4.732;2022-09-23T09:45:32;16.00;99.90
9640;DHT22;51745;50.872;4.732;2022-09-23T09:48:24;16.10;99.90
9640;DHT22;51745;50.872;4.732;2022-09-23T09:51:18;16.30;99.90
9640;DHT22;51745;50.872;4.732;2022-09-23T09:54:16;16.30;99.90
9640;DHT22;51745;50.872;4.732;2022-09-23T09:57:11;16.30;99.90
9640;DHT22;51745;50.872;4.732;2022-09-23T10:00:16;15.90;99.90
9640;DHT22;51745;50.872;4.732;2022-09-23T10:03:20;16.50;99.90
9640;DHT22;51745;50.872;4.732;2022-09-23T10:06:14;16.60;99.90
9640;DHT22;51745;50.872;4.732;2022-09-23T10:09:10;16.70;99.90
9640;DHT22;51745;50.872;4.732;2022-09-23T10:12:07;16.80;99.90
9640;DHT22;51745;50.872;4.732;2022-09-23T10:15:01;16.80;99.90
9640;DHT22;51745;50.872;4.732;2022-09-23T10:17:49;16.90;99.90
9640;DHT22;51745;50.872;4.732;2022-09-23T10:20:39;16.50;99.90
9640;DHT22;51745;50.872;4.732;2022-09-23T10:23:27;16.90;99.90
9640;DHT22;51745;50.872;4.732;2022-09-23T10:26:24;17.00;99.90
9640;DHT22;51745;50.872;4.732;2022-09-23T10:29:19;17.10;99.90
9640;DHT22;51745;50.872;4.732;2022-09-23T10:32:17;17.00;99.90
9640;DHT22;51745;50.872;4.732;2022-09-23T10:35:12;17.10;99.90
9640;DHT22;51745;50.872;4.732;2022-09-23T10:38:02;17.10;99.90
9640;DHT22;51745;50.872;4.732;2022-09-23T10:40:52;17.30;99.90
9640;DHT22;51745;50.872;4.732;2022-09-23T10:44:00;17.30;99.90
9640;DHT22;51745;50.872;4.732;2022-09-23T10:47:18;17.30;99.90
9640;DHT22;51745;50.872;4.732;2022-09-23T10:50:11;17.50;99.90
9640;DHT22;51745;50.872;4.732;2022-09-23T10:53:03;18.20;99.90
9640;DHT22;51745;50.872;4.732;2022-09-23T10:56:00;17.60;99.90
9640;DHT22;51745;50.872;4.732;2022-09-23T10:58:55;17.80;99.90
9640;DHT22;51745;50.872;4.732;2022-09-23T11:01:48;18.00;99.90
9640;DHT22;51745;50.872;4.732;2022-09-23T11:04:48;18.50;99.90
9640;DHT22;51745;50.872;4.732;2022-09-23T11:07:43;18.30;99.90
9640;DHT22;51745;50.872;4.732;2022-09-23T11:10:53;18.40;99.90
9640;DHT22;51745;50.872;4.732;2022-09-23T11:13:55;18.40;99.90
9640;DHT22;51745;50.872;4.732;2022-09-23T11:16:55;18.50;99.90
9640;DHT22;51745;50.872;4.732;2022-09-23T11:19:54;18.60;99.90
9640;DHT22;51745;50.872;4.732;2022-09-23T11:22:49;18.60;99.90
9640;DHT22;51745;50.872;4.732;2022-09-23T11:25:42;18.40;99.90
9640;DHT22;51745;50.872;4.732;2022-09-23T11:28:42;18.40;99.90
9640;DHT22;51745;50.872;4.732;2022-09-23T11:31:36;18.40;99.90
9640;DHT22;51745;50.872;4.732;2022-09-23T11:37:41;18.40;99.90
9640;DHT22;51745;50.872;4.732;2022-09-23T11:40:34;17.60;99.90
9640;DHT22;51745;50.872;4.732;2022-09-23T11:43:31;18.50;99.90
9640;DHT22;51745;50.872;4.732;2022-09-23T11:46:25;18.50;99.90
9640;DHT22;51745;50.872;4.732;2022-09-23T11:49:15;17.80;99.90
9640;DHT22;51745;50.872;4.732;2022-09-23T11:52:07;18.40;99.90
9640;DHT22;51745;50.872;4.732;2022-09-23T11:55:05;18.50;99.90
9640;DHT22;51745;50.872;4.732;2022-09-23T11:58:04;18.50;99.90
9640;DHT22;51745;50.872;4.732;2022-09-23T12:01:11;18.60;99.90
9640;DHT22;51745;50.872;4.732;2022-09-23T12:04:03;18.50;99.90
9640;DHT22;51745;50.872;4.732;2022-09-23T12:07:08;18.60;99.90
9640;DHT22;51745;50.872;4.732;2022-09-23T12:09:59;18.60;99.90
9640;DHT22;51745;50.872;4.732;2022-09-23T12:12:50;18.60;99.90
9640;DHT22;51745;50.872;4.732;2022-09-23T12:15:44;18.70;99.90
9640;DHT22;51745;50.872;4.732;2022-09-23T12:18:39;18.70;99.90
9640;DHT22;51745;50.872;4.732;2022-09-23T12:21:45;18.70;99.90
9640;DHT22;51745;50.872;4.732;2022-09-23T12:24:44;18.70;99.90
9640;DHT22;51745;50.872;4.732;2022-09-23T12:27:35;18.70;99.90
9640;DHT22;51745;50.872;4.732;2022-09-23T12:30:25;18.90;99.90
9640;DHT22;51745;50.872;4.732;2022-09-23T12:33:17;18.80;99.90
9640;DHT22;51745;50.872;4.732;2022-09-23T12:36:07;18.90;99.90
9640;DHT22;51745;50.872;4.732;2022-09-23T12:38:59;19.00;99.90
9640;DHT22;51745;50.872;4.732;2022-09-23T12:41:48;19.00;99.90
9640;DHT22;51745;50.872;4.732;2022-09-23T12:44:41;19.10;99.90
9640;DHT22;51745;50.872;4.732;2022-09-23T12:47:36;19.10;99.90
9640;DHT22;51745;50.872;4.732;2022-09-23T12:59:59;18.90;99.90
9640;DHT22;51745;50.872;4.732;2022-09-23T13:03:01;18.90;99.90
9640;DHT22;51745;50.872;4.732;2022-09-23T13:06:06;18.80;99.90
9640;DHT22;51745;50.872;4.732;2022-09-23T13:09:13;18.70;99.90
9640;DHT22;51745;50.872;4.732;2022-09-23T13:12:02;18.60;99.90
9640;DHT22;51745;50.872;4.732;2022-09-23T13:14:52;18.60;99.90
9640;DHT22;51745;50.872;4.732;2022-09-23T13:17:42;18.60;99.90
9640;DHT22;51745;50.872;4.732;2022-09-23T13:20:34;18.60;99.90
9640;DHT22;51745;50.872;4.732;2022-09-23T13:23:24;18.70;99.90
9640;DHT22;51745;50.872;4.732;2022-09-23T13:26:12;18.70;99.90
9640;DHT22;51745;50.872;4.732;2022-09-23T13:29:02;18.70;99.90
9640;DHT22;51745;50.872;4.732;2022-09-23T13:31:50;18.70;99.90
9640;DHT22;51745;50.872;4.732;2022-09-23T13:34:40;18.80;99.90
9640;DHT22;51745;50.872;4.732;2022-09-23T13:37:31;18.70;99.90
9640;DHT22;51745;50.872;4.732;2022-09-23T13:40:27;18.70;99.90
9640;DHT22;51745;50.872;4.732;2022-09-23T13:43:17;18.70;99.90
9640;DHT22;51745;50.872;4.732;2022-09-23T13:46:08;18.60;99.90
9640;DHT22;51745;50.872;4.732;2022-09-23T13:48:57;18.60;99.90
9640;DHT22;51745;50.872;4.732;2022-09-23T13:51:46;18.60;99.90
9640;DHT22;51745;50.872;4.732;2022-09-23T13:54:35;18.60;99.90
9640;DHT22;51745;50.872;4.732;2022-09-23T13:57:33;18.60;99.90
9640;DHT22;51745;50.872;4.732;2022-09-23T14:00:21;18.30;99.90
9640;DHT22;51745;50.872;4.732;2022-09-23T14:03:17;18.50;99.90
9640;DHT22;51745;50.872;4.732;2022-09-23T14:06:07;18.50;99.90
9640;DHT22;51745;50.872;4.732;2022-09-23T14:08:58;18.50;99.90
9640;DHT22;51745;50.872;4.732;2022-09-23T14:11:49;18.50;99.90
9640;DHT22;51745;50.872;4.732;2022-09-23T14:14:40;18.60;99.90
9640;DHT22;51745;50.872;4.732;2022-09-23T14:17:30;18.60;99.90
9640;DHT22;51745;50.872;4.732;2022-09-23T14:20:19;18.60;99.90
9640;DHT22;51745;50.872;4.732;2022-09-23T14:23:09;18.60;99.90
9640;DHT22;51745;50.872;4.732;2022-09-23T14:26:00;18.70;99.90
9640;DHT22;51745;50.872;4.732;2022-09-23T14:28:47;18.60;99.90
9640;DHT22;51745;50.872;4.732;2022-09-23T14:31:36;18.50;99.90
9640;DHT22;51745;50.872;4.732;2022-09-23T14:34:38;18.50;99.90
9640;DHT22;51745;50.872;4.732;2022-09-23T14:37:27;18.50;99.90
9640;DHT22;51745;50.872;4.732;2022-09-23T14:40:34;18.40;99.90
9640;DHT22;51745;50.872;4.732;2022-09-23T14:43:25;19.00;99.90
9640;DHT22;51745;50.872;4.732;2022-09-23T14:46:17;18.40;99.90
9640;DHT22;51745;50.872;4.732;2022-09-23T14:49:12;18.30;99.90
9640;DHT22;51745;50.872;4.732;2022-09-23T14:52:03;18.20;99.90
9640;DHT22;51745;50.872;4.732;2022-09-23T14:54:51;18.10;99.90
9640;DHT22;51745;50.872;4.732;2022-09-23T14:57:39;16.30;99.90
9640;DHT22;51745;50.872;4.732;2022-09-23T15:00:30;18.00;99.90
9640;DHT22;51745;50.872;4.732;2022-09-23T15:03:18;17.90;99.90
9640;DHT22;51745;50.872;4.732;2022-09-23T15:06:08;17.90;99.90
9640;DHT22;51745;50.872;4.732;2022-09-23T15:08:58;17.80;99.90
9640;DHT22;51745;50.872;4.732;2022-09-23T15:11:46;17.90;99.90
9640;DHT22;51745;50.872;4.732;2022-09-23T15:14:35;17.90;99.90
9640;DHT22;51745;50.872;4.732;2022-09-23T15:17:28;17.80;99.90
9640;DHT22;51745;50.872;4.732;2022-09-23T15:20:19;17.70;99.90
9640;DHT22;51745;50.872;4.732;2022-09-23T15:23:29;17.70;99.90
9640;DHT22;51745;50.872;4.732;2022-09-23T15:26:18;17.60;99.90
9640;DHT22;51745;50.872;4.732;2022-09-23T15:29:06;17.60;99.90
9640;DHT22;51745;50.872;4.732;2022-09-23T15:31:54;17.50;99.90
9640;DHT22;51745;50.872;4.732;2022-09-23T15:34:48;17.40;99.90
9640;DHT22;51745;50.872;4.732;2022-09-23T15:37:36;17.30;99.90
9640;DHT22;51745;50.872;4.732;2022-09-23T15:40:24;17.30;99.90
9640;DHT22;51745;50.872;4.732;2022-09-23T15:43:13;17.30;99.90
9640;DHT22;51745;50.872;4.732;2022-09-23T15:46:07;17.20;99.90
9640;DHT22;51745;50.872;4.732;2022-09-23T15:48:57;17.30;99.90
9640;DHT22;51745;50.872;4.732;2022-09-23T15:51:47;17.20;99.90
9640;DHT22;51745;50.872;4.732;2022-09-23T15:54:36;17.20;99.90
9640;DHT22;51745;50.872;4.732;2022-09-23T15:57:24;17.20;99.90
9640;DHT22;51745;50.872;4.732;2022-09-23T16:00:15;17.10;99.90
9640;DHT22;51745;50.872;4.732;2022-09-23T16:03:07;17.10;99.90
9640;DHT22;51745;50.872;4.732;2022-09-23T16:06:00;17.10;99.90
9640;DHT22;51745;50.872;4.732;2022-09-23T16:08:50;16.90;99.90
9640;DHT22;51745;50.872;4.732;2022-09-23T16:11:41;16.80;99.90
9640;DHT22;51745;50.872;4.732;2022-09-23T16:14:30;16.80;99.90
9640;DHT22;51745;50.872;4.732;2022-09-23T16:17:19;16.70;99.90
9640;DHT22;51745;50.872;4.732;2022-09-23T16:20:07;16.70;99.90
9640;DHT22;51745;50.872;4.732;2022-09-23T16:23:01;16.60;99.90
9640;DHT22;51745;50.872;4.732;2022-09-23T16:25:53;16.60;99.90
9640;DHT22;51745;50.872;4.732;2022-09-23T16:28:45;16.50;99.90
9640;DHT22;51745;50.872;4.732;2022-09-23T16:31:33;16.50;99.90
9640;DHT22;51745;50.872;4.732;2022-09-23T16:34:21;16.40;99.90
9640;DHT22;51745;50.872;4.732;2022-09-23T16:37:09;16.40;99.90
9640;DHT22;51745;50.872;4.732;2022-09-23T16:39:58;16.40;99.90
9640;DHT22;51745;50.872;4.732;2022-09-23T16:42:49;16.30;99.90
9640;DHT22;51745;50.872;4.732;2022-09-23T16:45:37;16.40;99.90
9640;DHT22;51745;50.872;4.732;2022-09-23T16:48:28;16.30;99.90
9640;DHT22;51745;50.872;4.732;2022-09-23T16:51:16;16.10;99.90
9640;DHT22;51745;50.872;4.732;2022-09-23T16:54:06;16.10;99.90
9640;DHT22;51745;50.872;4.732;2022-09-23T16:56:57;16.10;99.90
9640;DHT22;51745;50.872;4.732;2022-09-23T16:59:48;17.20;99.90
9640;DHT22;51745;50.872;4.732;2022-09-23T17:02:55;16.00;99.90
9640;DHT22;51745;50.872;4.732;2022-09-23T17:06:09;15.90;99.90
9640;DHT22;51745;50.872;4.732;2022-09-23T17:08:58;16.20;99.90
9640;DHT22;51745;50.872;4.732;2022-09-23T17:11:46;15.90;99.90
9640;DHT22;51745;50.872;4.732;2022-09-23T17:14:36;15.90;99.90
9640;DHT22;51745;50.872;4.732;2022-09-23T17:17:25;15.90;99.90
9640;DHT22;51745;50.872;4.732;2022-09-23T17:20:13;15.90;99.90
9640;DHT22;51745;50.872;4.732;2022-09-23T17:23:01;15.90;99.90
9640;DHT22;51745;50.872;4.732;2022-09-23T17:25:53;15.90;99.90
9640;DHT22;51745;50.872;4.732;2022-09-23T17:28:41;16.20;99.90
9640;DHT22;51745;50.872;4.732;2022-09-23T17:31:29;16.00;99.90
9640;DHT22;51745;50.872;4.732;2022-09-23T17:34:18;16.00;99.90
9640;DHT22;51745;50.872;4.732;2022-09-23T17:37:09;16.40;99.90
9640;DHT22;51745;50.872;4.732;2022-09-23T17:39:57;16.10;99.90
9640;DHT22;51745;50.872;4.732;2022-09-23T17:42:48;16.00;99.90
9640;DHT22;51745;50.872;4.732;2022-09-23T17:45:39;15.90;99.90
9640;DHT22;51745;50.872;4.732;2022-09-23T17:48:27;15.90;99.90
9640;DHT22;51745;50.872;4.732;2022-09-23T17:51:20;16.00;99.90
9640;DHT22;51745;50.872;4.732;2022-09-23T17:54:08;15.80;99.90
9640;DHT22;51745;50.872;4.732;2022-09-23T17:56:57;15.90;99.90
9640;DHT22;51745;50.872;4.732;2022-09-23T17:59:44;15.40;99.90
9640;DHT22;51745;50.872;4.732;2022-09-23T18:02:35;15.60;99.90
9640;DHT22;51745;50.872;4.732;2022-09-23T18:05:24;16.00;99.90
9640;DHT22;51745;50.872;4.732;2022-09-23T18:08:12;15.40;99.90
9640;DHT22;51745;50.872;4.732;2022-09-23T18:11:08;15.40;99.90
9640;DHT22;51745;50.872;4.732;2022-09-23T18:13:57;15.30;99.90
9640;DHT22;51745;50.872;4.732;2022-09-23T18:16:50;15.30;99.90
9640;DHT22;51745;50.872;4.732;2022-09-23T18:19:38;15.20;99.90
9640;DHT22;51745;50.872;4.732;2022-09-23T18:22:25;15.10;99.90
9640;DHT22;51745;50.872;4.732;2022-09-23T18:25:15;15.40;99.90
9640;DHT22;51745;50.872;4.732;2022-09-23T18:28:27;15.10;99.90
9640;DHT22;51745;50.872;4.732;2022-09-23T18:31:19;15.00;99.90
9640;DHT22;51745;50.872;4.732;2022-09-23T18:34:09;14.90;99.90
9640;DHT22;51745;50.872;4.732;2022-09-23T18:36:57;15.00;99.90
9640;DHT22;51745;50.872;4.732;2022-09-23T18:39:46;14.90;99.90
9640;DHT22;51745;50.872;4.732;2022-09-23T18:42:36;14.90;99.90
9640;DHT22;51745;50.872;4.732;2022-09-23T18:45:35;14.90;99.90
9640;DHT22;51745;50.872;4.732;2022-09-23T18:48:24;14.70;99.90
9640;DHT22;51745;50.872;4.732;2022-09-23T18:51:30;14.70;99.90